sensor_id;sensor_type;location;lat;lon;timestamp;P1;durP1;ratioP1;P2;durP2;ratioP2
30948;SDS011;17637;51.984;21.208;2024-03-17T00:01:25;10.18;;;4.20;;
30948;SDS011;17637;51.984;21.208;2024-03-17T00:03:55;14.13;;;4.90;;
30948;SDS011;17637;51.984;21.208;2024-03-17T00:06:27;10.63;;;3.05;;
30948;SDS011;17637;51.984;21.208;2024-03-17T00:08:58;13.25;;;4.30;;
30948;SDS011;17637;51.984;21.208;2024-03-17T00:11:28;14.65;;;4.13;;
30948;SDS011;17637;51.984;21.208;2024-03-17T00:13:59;12.05;;;3.35;;
30948;SDS011;17637;51.984;21.208;2024-03-17T00:16:29;10.65;;;3.53;;
30948;SDS011;17637;51.984;21.208;2024-03-17T00:19:00;14.57;;;4.70;;
30948;SDS011;17637;51.984;21.208;2024-03-17T00:21:30;12.45;;;4.45;;
30948;SDS011;17637;51.984;21.208;2024-03-17T00:24:01;16.08;;;4.20;;
30948;SDS011;17637;51.984;21.208;2024-03-17T00:26:32;13.05;;;3.60;;
30948;SDS011;17637;51.984;21.208;2024-03-17T00:29:04;10.45;;;3.25;;
30948;SDS011;17637;51.984;21.208;2024-03-17T00:31:34;11.13;;;3.28;;
30948;SDS011;17637;51.984;21.208;2024-03-17T00:34:05;10.73;;;2.38;;
30948;SDS011;17637;51.984;21.208;2024-03-17T00:36:35;8.05;;;3.00;;
30948;SDS011;17637;51.984;21.208;2024-03-17T00:39:06;12.30;;;4.13;;
30948;SDS011;17637;51.984;21.208;2024-03-17T00:41:37;11.57;;;3.70;;
30948;SDS011;17637;51.984;21.208;2024-03-17T00:44:07;14.43;;;3.65;;
30948;SDS011;17637;51.984;21.208;2024-03-17T00:46:38;10.98;;;3.00;;
30948;SDS011;17637;51.984;21.208;2024-03-17T00:49:10;14.55;;;3.53;;
30948;SDS011;17637;51.984;21.208;2024-03-17T00:51:40;12.13;;;3.00;;
30948;SDS011;17637;51.984;21.208;2024-03-17T00:54:12;12.85;;;3.97;;
30948;SDS011;17637;51.984;21.208;2024-03-17T00:56:43;11.45;;;3.55;;
30948;SDS011;17637;51.984;21.208;2024-03-17T00:59:13;9.15;;;2.60;;
30948;SDS011;17637;51.984;21.208;2024-03-17T01:01:44;13.82;;;2.90;;
30948;SDS011;17637;51.984;21.208;2024-03-17T01:04:15;12.98;;;2.95;;
30948;SDS011;17637;51.984;21.208;2024-03-17T01:06:46;12.98;;;2.75;;
30948;SDS011;17637;51.984;21.208;2024-03-17T01:09:16;11.73;;;3.38;;
30948;SDS011;17637;51.984;21.208;2024-03-17T01:11:47;16.10;;;2.92;;
30948;SDS011;17637;51.984;21.208;2024-03-17T01:14:18;11.35;;;3.00;;
30948;SDS011;17637;51.984;21.208;2024-03-17T01:16:50;9.95;;;2.28;;
30948;SDS011;17637;51.984;21.208;2024-03-17T01:19:20;15.85;;;2.92;;
30948;SDS011;17637;51.984;21.208;2024-03-17T01:21:51;11.57;;;3.33;;
30948;SDS011;17637;51.984;21.208;2024-03-17T01:24:21;14.02;;;2.92;;
30948;SDS011;17637;51.984;21.208;2024-03-17T01:26:52;10.50;;;2.10;;
30948;SDS011;17637;51.984;21.208;2024-03-17T01:29:23;10.93;;;2.72;;
30948;SDS011;17637;51.984;21.208;2024-03-17T01:31:53;13.38;;;3.05;;
30948;SDS011;17637;51.984;21.208;2024-03-17T01:34:24;9.32;;;2.35;;
30948;SDS011;17637;51.984;21.208;2024-03-17T01:36:54;13.35;;;2.80;;
30948;SDS011;17637;51.984;21.208;2024-03-17T01:46:12;17.00;;;3.20;;
30948;SDS011;17637;51.984;21.208;2024-03-17T01:48:43;17.30;;;3.45;;
30948;SDS011;17637;51.984;21.208;2024-03-17T01:51:14;16.42;;;3.33;;
30948;SDS011;17637;51.984;21.208;2024-03-17T01:53:45;8.88;;;2.88;;
30948;SDS011;17637;51.984;21.208;2024-03-17T01:56:16;14.82;;;3.00;;
30948;SDS011;17637;51.984;21.208;2024-03-17T01:58:47;20.05;;;3.97;;
30948;SDS011;17637;51.984;21.208;2024-03-17T02:01:18;15.38;;;3.40;;
30948;SDS011;17637;51.984;21.208;2024-03-17T02:03:48;17.27;;;3.58;;
30948;SDS011;17637;51.984;21.208;2024-03-17T02:06:19;17.05;;;4.43;;
30948;SDS011;17637;51.984;21.208;2024-03-17T02:08:50;17.35;;;3.45;;
30948;SDS011;17637;51.984;21.208;2024-03-17T02:11:28;12.00;;;3.40;;
30948;SDS011;17637;51.984;21.208;2024-03-17T02:13:59;14.27;;;4.05;;
30948;SDS011;17637;51.984;21.208;2024-03-17T02:16:30;10.38;;;3.22;;
30948;SDS011;17637;51.984;21.208;2024-03-17T02:19:00;12.00;;;3.28;;
30948;SDS011;17637;51.984;21.208;2024-03-17T02:21:30;14.15;;;3.35;;
30948;SDS011;17637;51.984;21.208;2024-03-17T02:24:01;21.48;;;3.35;;
30948;SDS011;17637;51.984;21.208;2024-03-17T02:26:32;14.57;;;3.67;;
30948;SDS011;17637;51.984;21.208;2024-03-17T02:29:02;16.60;;;3.10;;
30948;SDS011;17637;51.984;21.208;2024-03-17T02:31:33;16.95;;;3.45;;
30948;SDS011;17637;51.984;21.208;2024-03-17T02:34:03;11.70;;;2.95;;
30948;SDS011;17637;51.984;21.208;2024-03-17T02:36:33;19.33;;;3.40;;
30948;SDS011;17637;51.984;21.208;2024-03-17T02:39:04;15.73;;;2.80;;
30948;SDS011;17637;51.984;21.208;2024-03-17T02:41:53;20.15;;;4.20;;
30948;SDS011;17637;51.984;21.208;2024-03-17T02:44:24;11.00;;;3.20;;
30948;SDS011;17637;51.984;21.208;2024-03-17T02:46:54;12.48;;;2.83;;
30948;SDS011;17637;51.984;21.208;2024-03-17T02:49:25;15.45;;;3.88;;
30948;SDS011;17637;51.984;21.208;2024-03-17T02:51:57;15.55;;;4.55;;
30948;SDS011;17637;51.984;21.208;2024-03-17T02:54:27;14.02;;;4.00;;
30948;SDS011;17637;51.984;21.208;2024-03-17T02:56:58;17.90;;;3.85;;
30948;SDS011;17637;51.984;21.208;2024-03-17T02:59:29;13.18;;;3.25;;
30948;SDS011;17637;51.984;21.208;2024-03-17T03:01:59;16.85;;;3.40;;
30948;SDS011;17637;51.984;21.208;2024-03-17T03:04:30;12.18;;;3.28;;
30948;SDS011;17637;51.984;21.208;2024-03-17T03:07:00;12.70;;;3.85;;
30948;SDS011;17637;51.984;21.208;2024-03-17T03:09:31;14.15;;;3.58;;
30948;SDS011;17637;51.984;21.208;2024-03-17T03:12:02;15.30;;;3.67;;
30948;SDS011;17637;51.984;21.208;2024-03-17T03:14:35;14.68;;;3.13;;
30948;SDS011;17637;51.984;21.208;2024-03-17T03:17:07;17.65;;;3.97;;
30948;SDS011;17637;51.984;21.208;2024-03-17T03:19:38;16.60;;;3.45;;
30948;SDS011;17637;51.984;21.208;2024-03-17T03:22:09;12.48;;;3.22;;
30948;SDS011;17637;51.984;21.208;2024-03-17T03:24:39;18.65;;;3.60;;
30948;SDS011;17637;51.984;21.208;2024-03-17T03:27:10;13.80;;;3.30;;
30948;SDS011;17637;51.984;21.208;2024-03-17T03:29:40;17.00;;;3.47;;
30948;SDS011;17637;51.984;21.208;2024-03-17T03:32:11;17.58;;;4.28;;
30948;SDS011;17637;51.984;21.208;2024-03-17T03:34:41;22.83;;;3.53;;
30948;SDS011;17637;51.984;21.208;2024-03-17T03:37:12;15.45;;;3.40;;
30948;SDS011;17637;51.984;21.208;2024-03-17T03:39:43;11.25;;;3.03;;
30948;SDS011;17637;51.984;21.208;2024-03-17T03:42:13;13.65;;;3.58;;
30948;SDS011;17637;51.984;21.208;2024-03-17T03:44:45;17.75;;;4.15;;
30948;SDS011;17637;51.984;21.208;2024-03-17T03:47:16;16.02;;;3.70;;
30948;SDS011;17637;51.984;21.208;2024-03-17T03:49:46;12.68;;;3.50;;
30948;SDS011;17637;51.984;21.208;2024-03-17T03:52:17;16.45;;;4.10;;
30948;SDS011;17637;51.984;21.208;2024-03-17T03:54:50;16.40;;;3.83;;
30948;SDS011;17637;51.984;21.208;2024-03-17T03:57:21;21.48;;;4.28;;
30948;SDS011;17637;51.984;21.208;2024-03-17T03:59:51;14.10;;;3.58;;
30948;SDS011;17637;51.984;21.208;2024-03-17T04:02:22;15.25;;;3.50;;
30948;SDS011;17637;51.984;21.208;2024-03-17T04:04:53;13.38;;;3.55;;
30948;SDS011;17637;51.984;21.208;2024-03-17T04:07:23;16.55;;;4.45;;
30948;SDS011;17637;51.984;21.208;2024-03-17T04:09:54;10.60;;;2.97;;
30948;SDS011;17637;51.984;21.208;2024-03-17T04:12:24;15.35;;;3.85;;
30948;SDS011;17637;51.984;21.208;2024-03-17T04:14:55;14.18;;;3.85;;
30948;SDS011;17637;51.984;21.208;2024-03-17T04:17:25;18.00;;;4.10;;
30948;SDS011;17637;51.984;21.208;2024-03-17T04:19:57;18.33;;;3.95;;
30948;SDS011;17637;51.984;21.208;2024-03-17T04:22:27;13.65;;;4.13;;
30948;SDS011;17637;51.984;21.208;2024-03-17T04:24:58;13.35;;;4.28;;
30948;SDS011;17637;51.984;21.208;2024-03-17T04:27:29;20.23;;;4.50;;
30948;SDS011;17637;51.984;21.208;2024-03-17T04:30:00;16.35;;;4.10;;
30948;SDS011;17637;51.984;21.208;2024-03-17T04:32:31;15.52;;;4.45;;
30948;SDS011;17637;51.984;21.208;2024-03-17T04:35:01;16.20;;;5.03;;
30948;SDS011;17637;51.984;21.208;2024-03-17T04:37:32;20.63;;;4.63;;
30948;SDS011;17637;51.984;21.208;2024-03-17T04:40:09;14.13;;;4.22;;
30948;SDS011;17637;51.984;21.208;2024-03-17T04:42:39;13.00;;;4.63;;
30948;SDS011;17637;51.984;21.208;2024-03-17T04:45:10;17.92;;;4.80;;
30948;SDS011;17637;51.984;21.208;2024-03-17T04:47:40;16.95;;;4.40;;
30948;SDS011;17637;51.984;21.208;2024-03-17T04:50:11;17.48;;;5.45;;
30948;SDS011;17637;51.984;21.208;2024-03-17T04:52:42;16.15;;;4.68;;
30948;SDS011;17637;51.984;21.208;2024-03-17T04:55:13;16.48;;;5.00;;
30948;SDS011;17637;51.984;21.208;2024-03-17T04:57:44;18.98;;;5.13;;
30948;SDS011;17637;51.984;21.208;2024-03-17T05:00:14;11.13;;;4.22;;
30948;SDS011;17637;51.984;21.208;2024-03-17T05:02:48;16.30;;;4.95;;
30948;SDS011;17637;51.984;21.208;2024-03-17T05:05:18;19.90;;;5.22;;
30948;SDS011;17637;51.984;21.208;2024-03-17T05:07:50;17.35;;;5.05;;
30948;SDS011;17637;51.984;21.208;2024-03-17T05:10:21;21.77;;;4.70;;
30948;SDS011;17637;51.984;21.208;2024-03-17T05:12:51;17.67;;;4.53;;
30948;SDS011;17637;51.984;21.208;2024-03-17T05:15:22;17.08;;;4.68;;
30948;SDS011;17637;51.984;21.208;2024-03-17T05:17:52;15.00;;;4.45;;
30948;SDS011;17637;51.984;21.208;2024-03-17T05:20:23;14.82;;;4.40;;
30948;SDS011;17637;51.984;21.208;2024-03-17T05:22:54;11.27;;;4.50;;
30948;SDS011;17637;51.984;21.208;2024-03-17T05:25:24;19.25;;;4.70;;
30948;SDS011;17637;51.984;21.208;2024-03-17T05:27:55;19.23;;;6.43;;
30948;SDS011;17637;51.984;21.208;2024-03-17T05:30:25;26.00;;;10.52;;
30948;SDS011;17637;51.984;21.208;2024-03-17T05:32:57;15.70;;;7.95;;
30948;SDS011;17637;51.984;21.208;2024-03-17T05:35:27;20.67;;;8.98;;
30948;SDS011;17637;51.984;21.208;2024-03-17T05:37:58;20.40;;;7.70;;
30948;SDS011;17637;51.984;21.208;2024-03-17T05:40:28;42.45;;;17.77;;
30948;SDS011;17637;51.984;21.208;2024-03-17T05:43:01;31.88;;;11.63;;
30948;SDS011;17637;51.984;21.208;2024-03-17T05:45:31;73.32;;;32.42;;
30948;SDS011;17637;51.984;21.208;2024-03-17T05:48:02;52.38;;;23.10;;
30948;SDS011;17637;51.984;21.208;2024-03-17T05:50:35;61.70;;;29.25;;
30948;SDS011;17637;51.984;21.208;2024-03-17T05:53:05;37.42;;;20.02;;
30948;SDS011;17637;51.984;21.208;2024-03-17T05:55:37;20.77;;;11.32;;
30948;SDS011;17637;51.984;21.208;2024-03-17T05:58:08;16.20;;;6.85;;
30948;SDS011;17637;51.984;21.208;2024-03-17T06:00:39;34.28;;;13.57;;
30948;SDS011;17637;51.984;21.208;2024-03-17T06:03:09;21.90;;;9.60;;
30948;SDS011;17637;51.984;21.208;2024-03-17T06:05:40;21.33;;;7.32;;
30948;SDS011;17637;51.984;21.208;2024-03-17T06:08:15;12.45;;;5.07;;
30948;SDS011;17637;51.984;21.208;2024-03-17T06:10:47;18.08;;;5.18;;
30948;SDS011;17637;51.984;21.208;2024-03-17T06:13:18;16.40;;;5.45;;
30948;SDS011;17637;51.984;21.208;2024-03-17T06:15:49;15.95;;;5.85;;
30948;SDS011;17637;51.984;21.208;2024-03-17T06:18:19;22.98;;;9.85;;
30948;SDS011;17637;51.984;21.208;2024-03-17T06:20:50;14.70;;;7.00;;
30948;SDS011;17637;51.984;21.208;2024-03-17T06:23:21;18.13;;;5.95;;
30948;SDS011;17637;51.984;21.208;2024-03-17T06:25:51;11.73;;;4.97;;
30948;SDS011;17637;51.984;21.208;2024-03-17T06:28:22;14.60;;;4.78;;
30948;SDS011;17637;51.984;21.208;2024-03-17T06:30:57;11.73;;;4.32;;
30948;SDS011;17637;51.984;21.208;2024-03-17T06:33:31;18.05;;;4.40;;
30948;SDS011;17637;51.984;21.208;2024-03-17T06:36:03;14.23;;;4.00;;
30948;SDS011;17637;51.984;21.208;2024-03-17T06:38:36;14.38;;;5.05;;
30948;SDS011;17637;51.984;21.208;2024-03-17T06:41:06;12.38;;;4.35;;
30948;SDS011;17637;51.984;21.208;2024-03-17T06:43:37;12.50;;;4.38;;
30948;SDS011;17637;51.984;21.208;2024-03-17T06:46:09;12.90;;;4.28;;
30948;SDS011;17637;51.984;21.208;2024-03-17T06:48:40;11.68;;;3.80;;
30948;SDS011;17637;51.984;21.208;2024-03-17T06:51:10;13.68;;;4.28;;
30948;SDS011;17637;51.984;21.208;2024-03-17T06:53:41;12.63;;;3.70;;
30948;SDS011;17637;51.984;21.208;2024-03-17T06:56:11;13.75;;;3.92;;
30948;SDS011;17637;51.984;21.208;2024-03-17T06:58:42;15.93;;;4.03;;
30948;SDS011;17637;51.984;21.208;2024-03-17T07:01:12;31.00;;;12.10;;
30948;SDS011;17637;51.984;21.208;2024-03-17T07:03:43;35.75;;;14.38;;
30948;SDS011;17637;51.984;21.208;2024-03-17T07:06:13;12.40;;;7.68;;
30948;SDS011;17637;51.984;21.208;2024-03-17T07:08:44;18.27;;;6.93;;
30948;SDS011;17637;51.984;21.208;2024-03-17T07:11:15;18.02;;;8.60;;
30948;SDS011;17637;51.984;21.208;2024-03-17T07:13:47;18.80;;;4.75;;
30948;SDS011;17637;51.984;21.208;2024-03-17T07:16:19;16.98;;;4.30;;
30948;SDS011;17637;51.984;21.208;2024-03-17T07:18:52;15.35;;;4.40;;
30948;SDS011;17637;51.984;21.208;2024-03-17T07:21:26;13.75;;;3.83;;
30948;SDS011;17637;51.984;21.208;2024-03-17T07:23:57;15.00;;;4.15;;
30948;SDS011;17637;51.984;21.208;2024-03-17T07:26:30;10.40;;;3.63;;
30948;SDS011;17637;51.984;21.208;2024-03-17T07:29:00;10.73;;;3.67;;
30948;SDS011;17637;51.984;21.208;2024-03-17T07:31:31;12.38;;;4.18;;
30948;SDS011;17637;51.984;21.208;2024-03-17T07:34:01;12.82;;;4.40;;
30948;SDS011;17637;51.984;21.208;2024-03-17T07:36:33;15.02;;;5.20;;
30948;SDS011;17637;51.984;21.208;2024-03-17T07:39:03;14.02;;;5.05;;
30948;SDS011;17637;51.984;21.208;2024-03-17T07:41:34;14.32;;;5.00;;
30948;SDS011;17637;51.984;21.208;2024-03-17T07:44:04;15.07;;;4.70;;
30948;SDS011;17637;51.984;21.208;2024-03-17T07:46:34;15.35;;;4.32;;
30948;SDS011;17637;51.984;21.208;2024-03-17T07:49:05;14.68;;;4.75;;
30948;SDS011;17637;51.984;21.208;2024-03-17T07:51:36;16.08;;;4.72;;
30948;SDS011;17637;51.984;21.208;2024-03-17T07:54:06;12.60;;;5.00;;
30948;SDS011;17637;51.984;21.208;2024-03-17T07:56:37;13.13;;;4.70;;
30948;SDS011;17637;51.984;21.208;2024-03-17T07:59:07;10.30;;;5.22;;
30948;SDS011;17637;51.984;21.208;2024-03-17T08:01:42;14.05;;;5.95;;
30948;SDS011;17637;51.984;21.208;2024-03-17T08:04:12;16.48;;;4.05;;
30948;SDS011;17637;51.984;21.208;2024-03-17T08:06:43;13.30;;;5.65;;
30948;SDS011;17637;51.984;21.208;2024-03-17T08:09:14;13.07;;;4.30;;
30948;SDS011;17637;51.984;21.208;2024-03-17T08:11:46;14.82;;;6.63;;
30948;SDS011;17637;51.984;21.208;2024-03-17T08:14:17;19.20;;;6.10;;
30948;SDS011;17637;51.984;21.208;2024-03-17T08:16:47;11.25;;;5.13;;
30948;SDS011;17637;51.984;21.208;2024-03-17T08:19:18;12.20;;;4.43;;
30948;SDS011;17637;51.984;21.208;2024-03-17T08:21:48;13.43;;;4.10;;
30948;SDS011;17637;51.984;21.208;2024-03-17T08:24:19;9.82;;;3.03;;
30948;SDS011;17637;51.984;21.208;2024-03-17T08:26:50;11.68;;;4.18;;
30948;SDS011;17637;51.984;21.208;2024-03-17T08:29:20;11.95;;;3.80;;
30948;SDS011;17637;51.984;21.208;2024-03-17T08:31:51;10.63;;;4.60;;
30948;SDS011;17637;51.984;21.208;2024-03-17T08:34:21;14.82;;;4.60;;
30948;SDS011;17637;51.984;21.208;2024-03-17T08:36:52;12.05;;;3.90;;
30948;SDS011;17637;51.984;21.208;2024-03-17T08:39:22;11.48;;;3.90;;
30948;SDS011;17637;51.984;21.208;2024-03-17T08:41:53;9.52;;;3.53;;
30948;SDS011;17637;51.984;21.208;2024-03-17T08:44:23;12.73;;;4.22;;
30948;SDS011;17637;51.984;21.208;2024-03-17T08:46:54;12.65;;;4.05;;
30948;SDS011;17637;51.984;21.208;2024-03-17T08:49:24;10.07;;;3.45;;
30948;SDS011;17637;51.984;21.208;2024-03-17T08:51:56;12.88;;;5.05;;
30948;SDS011;17637;51.984;21.208;2024-03-17T08:54:27;10.93;;;4.78;;
30948;SDS011;17637;51.984;21.208;2024-03-17T08:56:57;10.55;;;5.90;;
30948;SDS011;17637;51.984;21.208;2024-03-17T08:59:28;7.55;;;3.10;;
30948;SDS011;17637;51.984;21.208;2024-03-17T09:01:58;9.70;;;3.72;;
30948;SDS011;17637;51.984;21.208;2024-03-17T09:04:29;13.23;;;4.35;;
30948;SDS011;17637;51.984;21.208;2024-03-17T09:06:59;14.93;;;5.22;;
30948;SDS011;17637;51.984;21.208;2024-03-17T09:09:34;8.98;;;3.58;;
30948;SDS011;17637;51.984;21.208;2024-03-17T09:12:04;10.25;;;3.30;;
30948;SDS011;17637;51.984;21.208;2024-03-17T09:14:35;8.45;;;3.67;;
30948;SDS011;17637;51.984;21.208;2024-03-17T09:17:07;17.88;;;7.32;;
30948;SDS011;17637;51.984;21.208;2024-03-17T09:19:37;14.52;;;7.43;;
30948;SDS011;17637;51.984;21.208;2024-03-17T09:22:08;11.60;;;6.28;;
30948;SDS011;17637;51.984;21.208;2024-03-17T09:24:38;17.23;;;5.78;;
30948;SDS011;17637;51.984;21.208;2024-03-17T09:27:09;12.80;;;4.15;;
30948;SDS011;17637;51.984;21.208;2024-03-17T09:29:39;12.70;;;5.32;;
30948;SDS011;17637;51.984;21.208;2024-03-17T09:32:10;15.25;;;4.30;;
30948;SDS011;17637;51.984;21.208;2024-03-17T09:34:49;14.38;;;5.63;;
30948;SDS011;17637;51.984;21.208;2024-03-17T09:37:19;12.65;;;5.80;;
30948;SDS011;17637;51.984;21.208;2024-03-17T09:39:50;13.95;;;4.85;;
30948;SDS011;17637;51.984;21.208;2024-03-17T09:42:21;14.82;;;4.68;;
30948;SDS011;17637;51.984;21.208;2024-03-17T09:44:52;15.98;;;6.18;;
30948;SDS011;17637;51.984;21.208;2024-03-17T09:47:24;13.07;;;6.53;;
30948;SDS011;17637;51.984;21.208;2024-03-17T09:49:56;15.35;;;6.30;;
30948;SDS011;17637;51.984;21.208;2024-03-17T09:52:27;12.75;;;5.72;;
30948;SDS011;17637;51.984;21.208;2024-03-17T09:54:59;16.25;;;5.07;;
30948;SDS011;17637;51.984;21.208;2024-03-17T09:57:29;17.30;;;5.15;;
30948;SDS011;17637;51.984;21.208;2024-03-17T10:00:01;12.88;;;5.57;;
30948;SDS011;17637;51.984;21.208;2024-03-17T10:02:34;14.00;;;7.03;;
30948;SDS011;17637;51.984;21.208;2024-03-17T10:05:05;11.70;;;4.90;;
30948;SDS011;17637;51.984;21.208;2024-03-17T10:07:37;10.20;;;4.80;;
30948;SDS011;17637;51.984;21.208;2024-03-17T10:10:12;15.57;;;7.38;;
30948;SDS011;17637;51.984;21.208;2024-03-17T10:12:43;10.95;;;6.13;;
30948;SDS011;17637;51.984;21.208;2024-03-17T10:15:13;9.88;;;4.65;;
30948;SDS011;17637;51.984;21.208;2024-03-17T10:17:44;13.38;;;5.90;;
30948;SDS011;17637;51.984;21.208;2024-03-17T10:20:21;16.30;;;6.25;;
30948;SDS011;17637;51.984;21.208;2024-03-17T10:25:24;8.82;;;3.20;;
30948;SDS011;17637;51.984;21.208;2024-03-17T10:27:55;3.45;;;2.03;;
30948;SDS011;17637;51.984;21.208;2024-03-17T10:30:27;5.93;;;2.58;;
30948;SDS011;17637;51.984;21.208;2024-03-17T10:32:59;5.95;;;3.35;;
30948;SDS011;17637;51.984;21.208;2024-03-17T10:35:34;7.65;;;2.90;;
30948;SDS011;17637;51.984;21.208;2024-03-17T10:38:06;12.18;;;4.32;;
30948;SDS011;17637;51.984;21.208;2024-03-17T10:40:36;11.43;;;5.43;;
30948;SDS011;17637;51.984;21.208;2024-03-17T10:43:09;12.05;;;6.70;;
30948;SDS011;17637;51.984;21.208;2024-03-17T10:45:40;10.65;;;3.58;;
30948;SDS011;17637;51.984;21.208;2024-03-17T10:48:11;6.75;;;2.85;;
30948;SDS011;17637;51.984;21.208;2024-03-17T10:50:45;5.40;;;3.22;;
30948;SDS011;17637;51.984;21.208;2024-03-17T10:53:18;7.57;;;3.70;;
30948;SDS011;17637;51.984;21.208;2024-03-17T10:56:04;8.75;;;3.70;;
30948;SDS011;17637;51.984;21.208;2024-03-17T10:58:36;9.52;;;3.58;;
30948;SDS011;17637;51.984;21.208;2024-03-17T11:01:08;10.52;;;3.10;;
30948;SDS011;17637;51.984;21.208;2024-03-17T11:03:41;8.65;;;4.47;;
30948;SDS011;17637;51.984;21.208;2024-03-17T11:06:12;10.90;;;5.30;;
30948;SDS011;17637;51.984;21.208;2024-03-17T11:08:42;8.85;;;3.63;;
30948;SDS011;17637;51.984;21.208;2024-03-17T11:11:14;9.95;;;4.97;;
30948;SDS011;17637;51.984;21.208;2024-03-17T11:14:15;10.38;;;3.38;;
30948;SDS011;17637;51.984;21.208;2024-03-17T11:16:46;9.30;;;3.75;;
30948;SDS011;17637;51.984;21.208;2024-03-17T11:19:17;6.60;;;3.20;;
30948;SDS011;17637;51.984;21.208;2024-03-17T11:21:48;13.32;;;7.75;;
30948;SDS011;17637;51.984;21.208;2024-03-17T11:24:19;10.90;;;6.07;;
30948;SDS011;17637;51.984;21.208;2024-03-17T11:26:50;8.77;;;6.28;;
30948;SDS011;17637;51.984;21.208;2024-03-17T11:29:28;8.15;;;4.80;;
30948;SDS011;17637;51.984;21.208;2024-03-17T11:31:58;8.82;;;3.80;;
30948;SDS011;17637;51.984;21.208;2024-03-17T11:34:30;8.93;;;4.07;;
30948;SDS011;17637;51.984;21.208;2024-03-17T11:37:01;5.18;;;3.45;;
30948;SDS011;17637;51.984;21.208;2024-03-17T11:39:53;7.72;;;5.43;;
30948;SDS011;17637;51.984;21.208;2024-03-17T11:42:26;7.53;;;4.55;;
30948;SDS011;17637;51.984;21.208;2024-03-17T11:44:58;8.70;;;4.50;;
30948;SDS011;17637;51.984;21.208;2024-03-17T11:47:39;3.72;;;3.00;;
30948;SDS011;17637;51.984;21.208;2024-03-17T11:50:10;5.90;;;4.03;;
30948;SDS011;17637;51.984;21.208;2024-03-17T11:52:41;8.13;;;5.50;;
30948;SDS011;17637;51.984;21.208;2024-03-17T11:55:17;12.98;;;8.38;;
30948;SDS011;17637;51.984;21.208;2024-03-17T11:57:54;12.77;;;7.78;;
30948;SDS011;17637;51.984;21.208;2024-03-17T12:00:25;14.77;;;7.30;;
30948;SDS011;17637;51.984;21.208;2024-03-17T12:02:56;17.85;;;10.23;;
30948;SDS011;17637;51.984;21.208;2024-03-17T12:05:28;8.73;;;4.78;;
30948;SDS011;17637;51.984;21.208;2024-03-17T12:07:59;6.70;;;3.90;;
30948;SDS011;17637;51.984;21.208;2024-03-17T12:10:29;6.75;;;4.10;;
30948;SDS011;17637;51.984;21.208;2024-03-17T12:13:00;6.50;;;3.70;;
30948;SDS011;17637;51.984;21.208;2024-03-17T12:15:31;11.00;;;4.70;;
30948;SDS011;17637;51.984;21.208;2024-03-17T12:18:01;8.10;;;4.25;;
30948;SDS011;17637;51.984;21.208;2024-03-17T12:20:33;5.60;;;3.40;;
30948;SDS011;17637;51.984;21.208;2024-03-17T12:23:03;6.07;;;3.83;;
30948;SDS011;17637;51.984;21.208;2024-03-17T12:25:34;5.35;;;3.20;;
30948;SDS011;17637;51.984;21.208;2024-03-17T12:28:10;4.90;;;3.08;;
30948;SDS011;17637;51.984;21.208;2024-03-17T12:30:43;6.50;;;4.80;;
30948;SDS011;17637;51.984;21.208;2024-03-17T12:33:13;6.68;;;3.60;;
30948;SDS011;17637;51.984;21.208;2024-03-17T12:35:44;9.07;;;6.07;;
30948;SDS011;17637;51.984;21.208;2024-03-17T12:38:21;10.27;;;6.50;;
30948;SDS011;17637;51.984;21.208;2024-03-17T12:40:53;5.43;;;3.33;;
30948;SDS011;17637;51.984;21.208;2024-03-17T12:43:23;5.50;;;3.60;;
30948;SDS011;17637;51.984;21.208;2024-03-17T12:45:57;7.00;;;3.17;;
30948;SDS011;17637;51.984;21.208;2024-03-17T12:48:28;7.28;;;3.88;;
30948;SDS011;17637;51.984;21.208;2024-03-17T12:50:58;6.88;;;3.90;;
30948;SDS011;17637;51.984;21.208;2024-03-17T12:53:29;7.07;;;3.40;;
30948;SDS011;17637;51.984;21.208;2024-03-17T12:55:59;4.75;;;3.35;;
30948;SDS011;17637;51.984;21.208;2024-03-17T12:58:48;5.65;;;3.58;;
30948;SDS011;17637;51.984;21.208;2024-03-17T13:01:37;12.55;;;7.05;;
30948;SDS011;17637;51.984;21.208;2024-03-17T13:04:08;62.55;;;25.27;;
30948;SDS011;17637;51.984;21.208;2024-03-17T13:06:38;13.90;;;7.72;;
30948;SDS011;17637;51.984;21.208;2024-03-17T13:09:09;4.72;;;3.22;;
30948;SDS011;17637;51.984;21.208;2024-03-17T13:11:40;4.30;;;3.10;;
30948;SDS011;17637;51.984;21.208;2024-03-17T13:14:10;5.40;;;3.95;;
30948;SDS011;17637;51.984;21.208;2024-03-17T13:16:45;4.50;;;3.42;;
30948;SDS011;17637;51.984;21.208;2024-03-17T13:19:16;4.70;;;3.22;;
30948;SDS011;17637;51.984;21.208;2024-03-17T13:21:47;6.35;;;3.60;;
30948;SDS011;17637;51.984;21.208;2024-03-17T13:24:18;4.95;;;3.30;;
30948;SDS011;17637;51.984;21.208;2024-03-17T13:26:49;4.88;;;3.10;;
30948;SDS011;17637;51.984;21.208;2024-03-17T13:29:21;15.73;;;9.50;;
30948;SDS011;17637;51.984;21.208;2024-03-17T13:31:51;7.28;;;3.53;;
30948;SDS011;17637;51.984;21.208;2024-03-17T13:34:21;3.03;;;2.05;;
30948;SDS011;17637;51.984;21.208;2024-03-17T13:36:53;4.47;;;3.53;;
30948;SDS011;17637;51.984;21.208;2024-03-17T13:39:28;5.07;;;3.22;;
30948;SDS011;17637;51.984;21.208;2024-03-17T13:41:59;5.65;;;3.20;;
30948;SDS011;17637;51.984;21.208;2024-03-17T13:44:33;5.03;;;3.00;;
30948;SDS011;17637;51.984;21.208;2024-03-17T13:47:04;3.83;;;2.53;;
30948;SDS011;17637;51.984;21.208;2024-03-17T13:49:34;8.18;;;2.80;;
30948;SDS011;17637;51.984;21.208;2024-03-17T13:52:05;3.67;;;2.63;;
30948;SDS011;17637;51.984;21.208;2024-03-17T13:54:35;9.25;;;4.10;;
30948;SDS011;17637;51.984;21.208;2024-03-17T13:57:06;3.78;;;2.75;;
30948;SDS011;17637;51.984;21.208;2024-03-17T13:59:36;5.18;;;3.05;;
30948;SDS011;17637;51.984;21.208;2024-03-17T14:02:08;4.80;;;3.20;;
30948;SDS011;17637;51.984;21.208;2024-03-17T14:04:42;5.25;;;2.97;;
30948;SDS011;17637;51.984;21.208;2024-03-17T14:07:12;4.65;;;3.28;;
30948;SDS011;17637;51.984;21.208;2024-03-17T14:09:42;3.40;;;2.60;;
30948;SDS011;17637;51.984;21.208;2024-03-17T14:12:13;4.70;;;2.40;;
30948;SDS011;17637;51.984;21.208;2024-03-17T14:14:44;2.95;;;2.30;;
30948;SDS011;17637;51.984;21.208;2024-03-17T14:17:14;5.70;;;3.60;;
30948;SDS011;17637;51.984;21.208;2024-03-17T14:19:45;2.67;;;2.30;;
30948;SDS011;17637;51.984;21.208;2024-03-17T14:22:15;5.00;;;3.20;;
30948;SDS011;17637;51.984;21.208;2024-03-17T14:24:46;8.60;;;4.00;;
30948;SDS011;17637;51.984;21.208;2024-03-17T14:27:16;4.97;;;3.03;;
30948;SDS011;17637;51.984;21.208;2024-03-17T14:29:47;3.95;;;2.10;;
30948;SDS011;17637;51.984;21.208;2024-03-17T14:32:17;5.15;;;4.20;;
30948;SDS011;17637;51.984;21.208;2024-03-17T14:34:47;5.53;;;2.97;;
30948;SDS011;17637;51.984;21.208;2024-03-17T14:37:18;4.18;;;2.80;;
30948;SDS011;17637;51.984;21.208;2024-03-17T14:39:49;3.42;;;2.15;;
30948;SDS011;17637;51.984;21.208;2024-03-17T14:42:20;7.70;;;2.88;;
30948;SDS011;17637;51.984;21.208;2024-03-17T14:44:51;5.38;;;3.38;;
30948;SDS011;17637;51.984;21.208;2024-03-17T14:47:21;7.97;;;4.72;;
30948;SDS011;17637;51.984;21.208;2024-03-17T14:49:54;7.13;;;4.40;;
30948;SDS011;17637;51.984;21.208;2024-03-17T14:52:24;9.55;;;5.28;;
30948;SDS011;17637;51.984;21.208;2024-03-17T14:54:55;6.70;;;4.28;;
30948;SDS011;17637;51.984;21.208;2024-03-17T14:57:27;6.32;;;3.67;;
30948;SDS011;17637;51.984;21.208;2024-03-17T14:59:58;5.45;;;3.70;;